Hallsville, Illinois
Current Conditions -  °F | °C
As of 4:15 PM on Tuesday 21 Oct 2014 (Local Time) from KAAA Reporting Station
Clear Clear  
Wind Chill: 60°   Ceiling: Unl
Heat Index: 60°   Visibility: 10mi
Dew Point: 40°   Wind: 8mph
Humidity: 47%   Direction: 40°NE
Pressure: 30.14"   Gusts: NA
Location:  40.143°N, 88.9637°W
Report Text: KAAA 212115Z AUTO 04007KT 10SM CLR 16/05 A3014 RMK AO2 T01570045
Loading
Personal Weather Stations






























Interactive Weather Map
Tropical Storm Tracking
New forecast layout! Learn more

10-Day Weather Forecast

Advertisements
Track Severe Weather on mobile